createdAt,value
2018-07-04T00:01:23.576Z,18.60
2018-07-04T00:04:03.700Z,18.70
2018-07-04T00:06:43.998Z,18.60
2018-07-04T00:09:24.172Z,18.50
2018-07-04T00:12:04.470Z,18.50
2018-07-04T00:14:44.710Z,18.50
2018-07-04T00:17:25.028Z,18.40
2018-07-04T00:20:05.178Z,18.30
2018-07-04T00:22:45.440Z,18.30
2018-07-04T00:25:25.844Z,18.40
2018-07-04T00:28:06.238Z,18.40
2018-07-04T00:30:46.641Z,18.30
2018-07-04T00:36:01.271Z,18.10
2018-07-04T00:38:41.604Z,18.10
2018-07-04T00:41:22.819Z,18.10
2018-07-04T00:44:02.922Z,18.00
2018-07-04T00:46:43.130Z,17.90
2018-07-04T00:49:23.782Z,17.70
2018-07-04T00:52:03.963Z,17.70
2018-07-04T00:54:44.168Z,17.70
2018-07-04T00:57:24.469Z,17.90
2018-07-04T01:00:04.586Z,18.00
2018-07-04T01:02:44.743Z,18.10
2018-07-04T01:05:25.168Z,18.20
2018-07-04T01:08:05.441Z,18.20
2018-07-04T01:10:45.607Z,18.20
2018-07-04T01:13:25.795Z,18.30
2018-07-04T01:16:06.085Z,18.30
2018-07-04T01:18:46.215Z,18.30
2018-07-04T01:21:26.387Z,18.30
2018-07-04T01:24:06.687Z,18.30
2018-07-04T01:29:21.693Z,18.20
2018-07-04T01:32:01.933Z,18.20
2018-07-04T01:34:42.251Z,18.30
2018-07-04T01:37:22.709Z,18.30
2018-07-04T01:42:37.421Z,18.20
2018-07-04T01:45:17.831Z,18.20
2018-07-04T01:47:58.497Z,18.10
2018-07-04T01:50:39.051Z,18.10
2018-07-04T01:53:19.236Z,18.10
2018-07-04T01:55:59.377Z,18.10
2018-07-04T01:58:39.675Z,18.10
2018-07-04T02:01:19.958Z,18.00
2018-07-04T02:04:00.289Z,18.10
2018-07-04T02:06:40.511Z,18.10
2018-07-04T02:09:20.811Z,18.10
2018-07-04T02:12:01.009Z,18.10
2018-07-04T02:14:41.327Z,18.10
2018-07-04T02:17:21.427Z,18.00
2018-07-04T02:20:01.668Z,18.10
2018-07-04T02:25:16.207Z,18.00
2018-07-04T02:27:57.157Z,18.00
2018-07-04T02:30:37.378Z,18.00
2018-07-04T02:33:17.457Z,17.90
2018-07-04T02:35:57.583Z,17.90
2018-07-04T02:38:37.823Z,17.80
2018-07-04T02:41:18.050Z,17.70
2018-07-04T02:43:58.264Z,17.70
2018-07-04T02:46:38.703Z,17.60
2018-07-04T02:49:19.947Z,17.40
2018-07-04T02:52:00.925Z,17.30
2018-07-04T02:54:41.236Z,17.30
2018-07-04T02:57:21.527Z,17.30
2018-07-04T03:02:35.965Z,17.40
2018-07-04T03:05:16.621Z,17.40
2018-07-04T03:07:56.734Z,17.50
2018-07-04T03:10:37.505Z,17.40
2018-07-04T03:13:17.636Z,17.50
2018-07-04T03:15:57.844Z,17.50
2018-07-04T03:18:38.221Z,17.60
2018-07-04T03:21:18.451Z,17.60
2018-07-04T03:23:58.711Z,17.60
2018-07-04T03:26:38.973Z,17.60
2018-07-04T03:29:19.333Z,17.60
2018-07-04T03:31:59.720Z,17.70
2018-07-04T03:37:14.249Z,17.80
2018-07-04T03:39:54.413Z,17.80
2018-07-04T03:42:34.710Z,17.90
2018-07-04T03:45:14.860Z,17.80
2018-07-04T03:47:54.980Z,17.90
2018-07-04T03:50:35.152Z,17.80
2018-07-04T03:53:15.689Z,17.80
2018-07-04T03:55:55.936Z,17.80
2018-07-04T03:58:36.052Z,17.80
2018-07-04T04:01:16.888Z,17.90
2018-07-04T04:03:57.076Z,17.80
2018-07-04T04:06:37.236Z,17.80
2018-07-04T04:09:17.451Z,17.90
2018-07-04T04:11:57.860Z,17.90
2018-07-04T04:14:38.174Z,17.90
2018-07-04T04:17:18.600Z,18.00
2018-07-04T04:19:58.857Z,18.00
2018-07-04T04:22:39.142Z,18.00
2018-07-04T04:25:19.198Z,18.00
2018-07-04T04:28:00.152Z,18.00
2018-07-04T04:30:40.324Z,18.10
2018-07-04T04:33:20.565Z,18.20
2018-07-04T04:36:00.816Z,18.30
2018-07-04T04:38:42.248Z,18.30
2018-07-04T04:41:22.348Z,18.30
2018-07-04T04:44:02.710Z,18.40
2018-07-04T04:46:43.076Z,18.40
2018-07-04T04:49:23.494Z,18.40
2018-07-04T04:52:03.699Z,18.40
2018-07-04T04:54:44.764Z,18.40
2018-07-04T04:57:25.084Z,18.40
2018-07-04T05:00:05.430Z,18.40
2018-07-04T05:05:20.350Z,18.50
2018-07-04T05:08:00.605Z,18.50
2018-07-04T05:10:41.034Z,18.60
2018-07-04T05:13:21.304Z,18.50
2018-07-04T05:16:01.420Z,18.60
2018-07-04T05:18:41.630Z,18.60
2018-07-04T05:21:21.832Z,18.70
2018-07-04T05:24:02.148Z,18.80
2018-07-04T05:26:42.202Z,18.90
2018-07-04T05:29:22.472Z,19.00
2018-07-04T05:32:02.696Z,19.00
2018-07-04T05:34:43.202Z,19.10
2018-07-04T05:37:23.687Z,19.20
2018-07-04T05:40:04.157Z,19.20
2018-07-04T05:42:44.450Z,19.20
2018-07-04T05:45:24.648Z,19.40
2018-07-04T05:48:04.725Z,19.40
2018-07-04T05:50:44.966Z,19.60
2018-07-04T05:53:25.243Z,19.60
2018-07-04T05:58:39.928Z,19.70
2018-07-04T06:01:20.269Z,19.80
2018-07-04T06:04:00.520Z,20.00
2018-07-04T06:06:40.781Z,19.80
2018-07-04T06:09:21.101Z,19.80
2018-07-04T06:12:01.464Z,20.10
2018-07-04T06:14:41.660Z,20.30
2018-07-04T06:19:56.133Z,20.70
2018-07-04T06:22:36.240Z,20.80
2018-07-04T06:25:16.512Z,20.50
2018-07-04T06:27:56.780Z,20.50
2018-07-04T06:30:37.275Z,20.60
2018-07-04T06:33:17.622Z,20.60
2018-07-04T06:35:58.695Z,20.60
2018-07-04T06:40:54.782Z,20.40
2018-07-04T06:43:22.827Z,20.40
2018-07-04T06:45:51.027Z,20.50
2018-07-04T06:48:18.954Z,20.60
2018-07-04T06:50:47.013Z,20.50
2018-07-04T06:53:14.931Z,20.70
2018-07-04T06:55:42.971Z,20.90
2018-07-04T07:00:40.225Z,20.90
2018-07-04T07:03:20.489Z,21.00
2018-07-04T07:06:00.609Z,20.90
2018-07-04T07:08:40.839Z,20.90
2018-07-04T07:11:21.190Z,20.90
2018-07-04T07:14:01.415Z,20.90
2018-07-04T07:16:41.655Z,20.80
2018-07-04T07:19:21.912Z,20.90
2018-07-04T07:22:02.273Z,20.90
2018-07-04T07:24:42.519Z,21.10
2018-07-04T07:27:22.798Z,21.30
2018-07-04T07:30:02.951Z,21.30
2018-07-04T07:32:43.216Z,21.40
2018-07-04T07:35:23.361Z,21.50
2018-07-04T07:38:03.573Z,21.60
2018-07-04T07:40:43.694Z,21.80
2018-07-04T07:43:23.856Z,22.00
2018-07-04T07:46:04.731Z,22.00
2018-07-04T07:48:45.058Z,22.10
2018-07-04T07:51:25.219Z,22.00
2018-07-04T07:54:05.411Z,22.30
2018-07-04T07:59:20.001Z,22.40
2018-07-04T08:02:00.253Z,22.70
2018-07-04T08:04:40.645Z,22.50
2018-07-04T08:07:20.915Z,22.80
2018-07-04T08:10:01.821Z,23.10
2018-07-04T08:12:42.082Z,23.10
2018-07-04T08:17:57.782Z,23.30
2018-07-04T08:20:38.052Z,23.40
2018-07-04T08:23:18.171Z,23.30
2018-07-04T08:25:58.526Z,23.30
2018-07-04T08:28:39.520Z,23.50
2018-07-04T08:31:19.847Z,23.60
2018-07-04T08:34:00.089Z,23.80
2018-07-04T08:36:40.123Z,23.80
2018-07-04T08:39:20.388Z,23.80
2018-07-04T08:42:00.665Z,24.20
2018-07-04T08:44:40.923Z,24.10
2018-07-04T08:47:21.277Z,24.00
2018-07-04T08:50:01.422Z,24.10
2018-07-04T08:52:41.643Z,24.30
2018-07-04T08:55:21.931Z,24.20
2018-07-04T08:58:02.064Z,24.00
2018-07-04T09:00:42.289Z,24.10
2018-07-04T09:03:22.875Z,24.10
2018-07-04T09:06:03.109Z,24.20
2018-07-04T09:08:43.429Z,24.40
2018-07-04T09:11:23.701Z,24.60
2018-07-04T09:14:04.464Z,24.70
2018-07-04T09:16:45.289Z,25.00
2018-07-04T09:19:25.701Z,25.30
2018-07-04T09:22:05.802Z,25.60
2018-07-04T09:24:45.903Z,25.90
2018-07-04T09:30:00.096Z,26.10
2018-07-04T09:32:40.609Z,26.20
2018-07-04T09:35:20.903Z,26.40
2018-07-04T09:38:01.165Z,26.60
2018-07-04T09:40:41.367Z,26.80
2018-07-04T09:43:21.853Z,27.00
2018-07-04T09:46:02.017Z,27.10
2018-07-04T09:51:17.141Z,27.20
2018-07-04T09:53:57.214Z,27.10
2018-07-04T09:56:37.420Z,27.20
2018-07-04T09:59:17.651Z,27.10
2018-07-04T10:01:58.117Z,27.10
2018-07-04T10:04:39.862Z,27.30
2018-07-04T10:07:20.333Z,27.40
2018-07-04T10:10:00.737Z,27.10
2018-07-04T10:12:41.020Z,27.40
2018-07-04T10:15:21.253Z,27.80
2018-07-04T10:18:01.411Z,27.70
2018-07-04T10:23:15.827Z,27.30
2018-07-04T10:25:55.961Z,27.30
2018-07-04T10:28:36.156Z,27.20
2018-07-04T10:31:16.402Z,27.60
2018-07-04T10:33:56.805Z,27.40
2018-07-04T10:36:37.167Z,27.50
2018-07-04T10:39:17.399Z,27.70
2018-07-04T10:41:57.566Z,27.70
2018-07-04T10:44:37.867Z,27.90
2018-07-04T10:47:18.203Z,28.00
2018-07-04T10:49:58.406Z,27.90
2018-07-04T10:52:38.840Z,27.50
2018-07-04T10:55:19.159Z,27.60
2018-07-04T10:57:59.535Z,27.60
2018-07-04T11:00:40.076Z,28.00
2018-07-04T11:03:20.305Z,27.90
2018-07-04T11:06:00.973Z,27.50
2018-07-04T11:08:41.197Z,27.20
2018-07-04T11:11:21.321Z,27.30
2018-07-04T11:14:01.497Z,27.40
2018-07-04T11:16:41.874Z,27.60
2018-07-04T11:19:22.025Z,27.80
2018-07-04T11:22:02.512Z,28.10
2018-07-04T11:24:42.879Z,28.60
2018-07-04T11:27:23.099Z,29.00
2018-07-04T11:32:37.677Z,29.60
2018-07-04T11:35:17.845Z,29.20
2018-07-04T11:37:58.051Z,29.00
2018-07-04T11:43:12.637Z,29.10
2018-07-04T11:45:54.791Z,28.90
2018-07-04T11:48:23.169Z,29.20
2018-07-04T11:50:51.525Z,28.90
2018-07-04T11:53:19.674Z,29.10
2018-07-04T11:55:47.573Z,29.20
2018-07-04T11:58:16.401Z,29.70
2018-07-04T12:00:44.807Z,29.90
2018-07-04T12:05:56.573Z,29.80
2018-07-04T12:08:24.759Z,29.60
2018-07-04T12:10:53.800Z,29.90
2018-07-04T12:13:22.885Z,29.80
2018-07-04T12:15:51.709Z,29.80
2018-07-04T12:18:20.014Z,29.90
2018-07-04T12:20:48.118Z,29.90
2018-07-04T12:23:16.569Z,29.50
2018-07-04T12:25:45.117Z,29.10
2018-07-04T12:28:13.138Z,29.00
2018-07-04T12:30:41.057Z,29.00
2018-07-04T12:33:08.963Z,28.90
2018-07-04T12:35:36.943Z,28.90
2018-07-04T12:38:04.991Z,29.00
2018-07-04T12:40:33.017Z,29.20
2018-07-04T12:43:00.979Z,29.20
2018-07-04T12:45:29.245Z,29.60
2018-07-04T12:47:57.295Z,29.70
2018-07-04T12:50:31.623Z,30.00
2018-07-04T12:52:59.510Z,30.30
2018-07-04T12:55:41.341Z,30.40
2018-07-04T13:00:56.374Z,30.70
2018-07-04T13:03:36.665Z,30.20
2018-07-04T13:06:17.491Z,29.70
2018-07-04T13:08:57.999Z,29.20
2018-07-04T13:11:38.251Z,29.50
2018-07-04T13:14:18.488Z,29.30
2018-07-04T13:16:59.013Z,28.90
2018-07-04T13:19:39.214Z,29.20
2018-07-04T13:22:19.342Z,29.80
2018-07-04T13:24:59.872Z,30.30
2018-07-04T13:27:40.316Z,30.40
2018-07-04T13:30:20.674Z,30.50
2018-07-04T13:33:00.784Z,30.50
2018-07-04T13:35:40.914Z,30.80
2018-07-04T13:38:21.066Z,31.20
2018-07-04T13:41:01.476Z,31.30
2018-07-04T13:43:41.663Z,31.70
2018-07-04T13:46:22.552Z,32.10
2018-07-04T13:49:02.974Z,32.40
2018-07-04T13:51:44.022Z,32.60
2018-07-04T13:54:24.582Z,32.20
2018-07-04T13:57:04.870Z,31.60
2018-07-04T13:59:45.092Z,31.20
2018-07-04T14:02:26.016Z,31.10
2018-07-04T14:05:06.270Z,31.20
2018-07-04T14:07:46.955Z,31.40
2018-07-04T14:13:01.562Z,31.80
2018-07-04T14:15:41.765Z,31.90
2018-07-04T14:18:21.993Z,31.80
2018-07-04T14:21:02.932Z,31.30
2018-07-04T14:23:43.776Z,31.20
2018-07-04T14:26:24.315Z,31.20
2018-07-04T14:29:04.663Z,30.80
2018-07-04T14:31:44.836Z,31.00
2018-07-04T14:34:26.213Z,30.40
2018-07-04T14:37:06.417Z,30.80
2018-07-04T14:39:47.619Z,30.90
2018-07-04T14:42:28.530Z,30.70
2018-07-04T14:45:09.565Z,30.10
2018-07-04T14:47:49.820Z,30.20
2018-07-04T14:50:30.093Z,30.60
2018-07-04T14:53:10.323Z,31.00
2018-07-04T14:55:50.719Z,31.20
2018-07-04T14:58:31.165Z,31.30
2018-07-04T15:01:11.566Z,31.10
2018-07-04T15:03:51.822Z,30.50
2018-07-04T15:09:06.953Z,30.00
2018-07-04T15:11:47.730Z,29.90
2018-07-04T15:14:28.109Z,30.00
2018-07-04T15:17:08.589Z,29.80
2018-07-04T15:19:49.233Z,29.70
2018-07-04T15:22:29.412Z,30.10
2018-07-04T15:25:09.568Z,30.20
2018-07-04T15:27:49.622Z,30.20
2018-07-04T15:30:29.786Z,29.70
2018-07-04T15:33:10.002Z,30.00
2018-07-04T15:35:50.322Z,30.00
2018-07-04T15:38:30.784Z,29.90
2018-07-04T15:41:10.899Z,30.30
2018-07-04T15:43:51.183Z,30.30
2018-07-04T15:46:31.534Z,29.90
2018-07-04T15:49:16.988Z,29.90
2018-07-04T15:51:57.069Z,29.90
2018-07-04T15:54:38.008Z,30.40
2018-07-04T15:57:18.226Z,30.50
2018-07-04T15:59:58.593Z,30.40
2018-07-04T16:02:39.350Z,30.10
2018-07-04T16:05:19.938Z,30.20
2018-07-04T16:08:00.351Z,30.20
2018-07-04T16:10:40.605Z,30.20
2018-07-04T16:13:21.014Z,30.20
2018-07-04T16:16:01.235Z,30.50
2018-07-04T16:18:41.862Z,30.80
2018-07-04T16:21:22.305Z,30.50
2018-07-04T16:24:02.678Z,30.80
2018-07-04T16:26:42.720Z,31.00
2018-07-04T16:29:23.066Z,30.90
2018-07-04T16:32:03.436Z,31.00
2018-07-04T16:34:43.694Z,30.80
2018-07-04T16:37:24.011Z,30.70
2018-07-04T16:40:04.190Z,30.70
2018-07-04T16:42:44.478Z,30.90
2018-07-04T16:45:25.331Z,30.80
2018-07-04T16:48:05.636Z,30.90
2018-07-04T16:50:45.720Z,31.20
2018-07-04T16:53:25.982Z,31.60
2018-07-04T16:56:06.232Z,31.40
2018-07-04T16:58:47.081Z,30.90
2018-07-04T17:01:27.571Z,30.40
2018-07-04T17:04:07.755Z,30.50
2018-07-04T17:06:47.886Z,30.40
2018-07-04T17:09:28.206Z,30.30
2018-07-04T17:12:08.558Z,30.40
2018-07-04T17:14:48.980Z,30.70
2018-07-04T17:17:29.172Z,30.70
2018-07-04T17:20:09.464Z,30.80
2018-07-04T17:22:49.684Z,30.80
2018-07-04T17:25:30.056Z,30.70
2018-07-04T17:28:10.329Z,30.50
2018-07-04T17:30:50.479Z,30.40
2018-07-04T17:33:30.696Z,30.50
2018-07-04T17:36:10.802Z,30.50
2018-07-04T17:38:51.159Z,30.50
2018-07-04T17:44:05.558Z,30.60
2018-07-04T17:46:45.951Z,30.80
2018-07-04T17:49:26.171Z,31.00
2018-07-04T17:52:06.448Z,31.20
2018-07-04T17:54:46.744Z,31.20
2018-07-04T17:57:26.926Z,31.10
2018-07-04T18:00:07.137Z,31.00
2018-07-04T18:02:47.416Z,30.70
2018-07-04T18:05:27.716Z,30.60
2018-07-04T18:08:08.088Z,30.30
2018-07-04T18:10:48.220Z,30.00
2018-07-04T18:13:28.464Z,29.60
2018-07-04T18:18:43.120Z,29.00
2018-07-04T18:21:26.332Z,28.90
2018-07-04T18:24:08.075Z,29.30
2018-07-04T18:26:49.001Z,29.60
2018-07-04T18:32:04.083Z,29.10
2018-07-04T18:34:44.177Z,28.70
2018-07-04T18:37:24.509Z,28.20
2018-07-04T18:40:04.633Z,27.90
2018-07-04T18:42:44.800Z,27.70
2018-07-04T18:47:59.174Z,27.30
2018-07-04T18:50:39.305Z,27.10
2018-07-04T18:53:19.388Z,26.90
2018-07-04T18:55:59.593Z,26.70
2018-07-04T18:58:39.757Z,26.60
2018-07-04T19:01:20.128Z,26.50
2018-07-04T19:04:00.426Z,26.40
2018-07-04T19:06:41.065Z,26.30
2018-07-04T19:09:21.429Z,26.20
2018-07-04T19:12:01.613Z,26.00
2018-07-04T19:14:41.933Z,25.90
2018-07-04T19:17:22.213Z,25.80
2018-07-04T19:20:03.275Z,25.60
2018-07-04T19:25:17.756Z,25.40
2018-07-04T19:27:58.100Z,25.30
2018-07-04T19:30:38.460Z,25.20
2018-07-04T19:33:18.647Z,25.10
2018-07-04T19:35:58.918Z,25.10
2018-07-04T19:38:39.067Z,25.00
2018-07-04T19:41:19.242Z,24.90
2018-07-04T19:43:59.372Z,24.90
2018-07-04T19:46:39.623Z,24.80
2018-07-04T19:49:19.784Z,24.70
2018-07-04T19:51:59.850Z,24.70
2018-07-04T19:54:40.071Z,24.70
2018-07-04T19:57:20.273Z,24.60
2018-07-04T20:00:00.492Z,24.50
2018-07-04T20:02:41.348Z,24.50
2018-07-04T20:05:21.430Z,24.40
2018-07-04T20:08:01.538Z,24.30
2018-07-04T20:10:41.553Z,24.20
2018-07-04T20:13:21.697Z,24.10
2018-07-04T20:16:02.337Z,24.00
2018-07-04T20:18:43.673Z,24.00
2018-07-04T20:21:23.838Z,24.00
2018-07-04T20:24:03.960Z,23.90
2018-07-04T20:26:44.060Z,23.60
2018-07-04T20:29:24.364Z,23.60
2018-07-04T20:32:04.568Z,23.50
2018-07-04T20:34:44.658Z,23.50
2018-07-04T20:37:24.713Z,23.50
2018-07-04T20:42:39.202Z,23.30
2018-07-04T20:45:19.416Z,23.40
2018-07-04T20:47:59.530Z,23.40
2018-07-04T20:50:39.765Z,23.20
2018-07-04T20:53:19.972Z,23.10
2018-07-04T20:56:00.229Z,23.10
2018-07-04T21:01:14.548Z,23.00
2018-07-04T21:03:54.892Z,22.90
2018-07-04T21:06:35.228Z,22.90
2018-07-04T21:09:15.232Z,22.90
2018-07-04T21:11:55.660Z,22.90
2018-07-04T21:14:35.822Z,22.80
2018-07-04T21:17:16.032Z,22.80
2018-07-04T21:19:56.637Z,22.70
2018-07-04T21:22:36.750Z,22.70
2018-07-04T21:25:16.936Z,22.60
2018-07-04T21:27:57.154Z,22.60
2018-07-04T21:30:37.490Z,22.50
2018-07-04T21:33:17.760Z,22.50
2018-07-04T21:35:58.179Z,22.50
2018-07-04T21:38:38.410Z,22.40
2018-07-04T21:41:18.833Z,22.40
2018-07-04T21:43:59.344Z,22.30
2018-07-04T21:46:39.540Z,22.20
2018-07-04T21:49:19.704Z,22.30
2018-07-04T21:51:59.932Z,22.30
2018-07-04T21:54:40.340Z,22.20
2018-07-04T21:57:20.476Z,22.20
2018-07-04T22:00:00.763Z,22.10
2018-07-04T22:02:40.946Z,22.10
2018-07-04T22:05:21.286Z,22.10
2018-07-04T22:10:35.565Z,22.10
2018-07-04T22:13:15.823Z,22.00
2018-07-04T22:15:56.083Z,22.00
2018-07-04T22:18:36.323Z,21.90
2018-07-04T22:23:51.010Z,21.80
2018-07-04T22:26:31.235Z,21.70
2018-07-04T22:29:11.570Z,21.70
2018-07-04T22:31:51.886Z,21.60
2018-07-04T22:34:32.154Z,21.60
2018-07-04T22:37:12.354Z,21.60
2018-07-04T22:39:52.555Z,21.40
2018-07-04T22:42:32.627Z,21.40
2018-07-04T22:45:12.873Z,21.40
2018-07-04T22:47:53.144Z,21.40
2018-07-04T22:50:33.581Z,21.40
2018-07-04T22:53:13.800Z,21.40
2018-07-04T22:55:53.979Z,21.30
2018-07-04T23:01:08.332Z,21.20
2018-07-04T23:03:48.617Z,21.20
2018-07-04T23:06:28.681Z,21.10
2018-07-04T23:09:08.929Z,21.00
2018-07-04T23:11:49.300Z,21.00
2018-07-04T23:14:29.714Z,21.00
2018-07-04T23:17:09.865Z,21.00
2018-07-04T23:19:50.789Z,21.00
2018-07-04T23:22:31.312Z,20.90
2018-07-04T23:25:11.502Z,20.90
2018-07-04T23:27:51.763Z,21.00
2018-07-04T23:30:32.515Z,21.00
2018-07-04T23:33:12.917Z,21.00
2018-07-04T23:35:53.298Z,20.90
2018-07-04T23:38:33.502Z,21.00
2018-07-04T23:41:13.618Z,21.00
2018-07-04T23:46:27.820Z,20.90
2018-07-04T23:49:07.969Z,20.80
2018-07-04T23:51:48.025Z,20.80
2018-07-04T23:54:28.251Z,20.80
2018-07-04T23:57:08.433Z,20.70
2018-07-04T23:59:48.785Z,20.70
